Погода Обуховскоена 2 недели

Свердловская область, Россия

16 - 29 июля
  • 16июля
    Сегодня
    +15°
    +23°
    Пасмурно, сплошная облачность
    ВремяПогодаТемператураВлажностьДавлениеВетер, м/сВероятность осадков
    02:00Облачно с прояснениями+14°C84 %752 мм3.1 м/с2 %
    05:00Ясно и безоблачно+13°C86 %752 мм2.9 м/с2 %
    08:00Ясно и безоблачно+18°C75 %752 мм2.4 м/с2 %
    11:00Облачно с прояснениями+22°C58 %751 мм5.7 м/с2 %
    14:00Пасмурно, сплошная облачность+22°C53 %752 мм4.6 м/с3 %
    17:00Облачно с прояснениями+23°C50 %751 мм4.6 м/с2 %
    20:00Ясно и безоблачно+22°C62 %752 мм3.2 м/с2 %
    23:00Ясно и безоблачно+18°C77 %751 мм3.0 м/с2 %
  • 17июля
    Среда
    +15°
    +26°
    Практически безоблачно
    ВремяПогодаТемператураВлажностьДавлениеВетер, м/сВероятность осадков
    02:00Ясно и безоблачно+16°C80 %751 мм3.4 м/с2 %
    05:00Ясно и безоблачно+15°C83 %751 мм3.2 м/с2 %
    08:00Ясно и безоблачно+20°C72 %751 мм2.7 м/с2 %
    11:00Практически безоблачно+24°C51 %750 мм3.9 м/с2 %
    14:00Практически безоблачно+26°C45 %750 мм4.8 м/с5 %
    17:00Практически безоблачно+26°C41 %749 мм4.8 м/с3 %
    20:00Ясно и безоблачно+23°C59 %748 мм1.7 м/с2 %
    23:00Ясно и безоблачно+20°C67 %748 мм3.4 м/с2 %
  • 18июля
    Четверг
    +14°
    +26°
    Ясно и безоблачно
    ВремяПогодаТемператураВлажностьДавлениеВетер, м/сВероятность осадков
    02:00Ясно и безоблачно+17°C84 %747 мм2.8 м/с2 %
    05:00Ясно и безоблачно+15°C94 %747 мм2.7 м/с2 %
    08:00Ясно и безоблачно+20°C80 %747 мм2.4 м/с2 %
    11:00Ясно и безоблачно+24°C47 %747 мм3.6 м/с2 %
    14:00Ясно и безоблачно+25°C43 %746 мм3.7 м/с10 %
    17:00Ясно и безоблачно+25°C43 %746 мм3.7 м/с9 %
    20:00Ясно и безоблачно+22°C54 %746 мм2.2 м/с5 %
    23:00Ясно и безоблачно+17°C70 %746 мм1.8 м/с2 %
  • 19июля
    Пятница
    +14°
    +25°
    Облачно с прояснениями
    ВремяПогодаТемператураВлажностьДавлениеВетер, м/сВероятность осадков
    02:00Ясно и безоблачно+15°C81 %745 мм1.9 м/с4 %
    05:00Ясно и безоблачно+15°C85 %745 мм2.7 м/с3 %
    08:00Практически безоблачно+20°C70 %746 мм2.3 м/с8 %
    11:00Небольшая облачность+24°C47 %745 мм3.6 м/с14 %
    14:00Облачно с прояснениями+24°C45 %744 мм2.3 м/с30 %
    17:00Практически безоблачно+20°C73 %744 мм1.9 м/с38 %
    20:00Практически безоблачно+21°C72 %744 мм2.7 м/с25 %
    23:00Практически безоблачно+17°C91 %744 мм2.1 м/с2 %
  • 20июля
    Суббота
    +15°
    +26°
    Пасмурно, сплошная облачность
    ВремяПогодаТемператураВлажностьДавлениеВетер, м/сВероятность осадков
    02:00Ясно и безоблачно+16°C97 %743 мм2.4 м/с5 %
    05:00Ясно и безоблачно+15°C97 %743 мм2.3 м/с2 %
    08:00Ясно и безоблачно+19°C85 %744 мм1.8 м/с2 %
    11:00Практически безоблачно+23°C66 %743 мм2.6 м/с20 %
    14:00Пасмурно, сплошная облачность+25°C54 %743 мм2.4 м/с32 %
    17:00Небольшая облачность+24°C60 %743 мм3.4 м/с32 %
    20:00Практически безоблачно+22°C71 %743 мм2.0 м/с24 %
    23:00Ясно и безоблачно+18°C91 %744 мм2.1 м/с3 %
Мы используем cookies
Соглашаюсь